CDT,Max TemperatureF,Mean TemperatureF,Min TemperatureF,Max Dew PointF,MeanDew PointF,Min DewpointF,Max Humidity, Mean Humidity, Min Humidity, Max Sea Level PressureIn, Mean Sea Level PressureIn, Min Sea Level PressureIn, Max VisibilityMiles, Mean VisibilityMiles, Min VisibilityMiles, Max Wind SpeedMPH, Mean Wind SpeedMPH, Max Gust SpeedMPH,PrecipitationIn, CloudCover, Events, WindDirDegrees
2012-4-1,89,75,62,67,63,56,93,69,34,29.80,29.74,29.66,10,8,3,14,8,23,0.00,0,,178
2012-4-2,86,75,66,68,63,55,90,72,36,29.74,29.63,29.53,10,8,3,16,9,24,0.00,4,,152
2012-4-3,82,72,59,68,61,37,90,69,21,29.84,29.75,29.63,10,7,4,15,7,21,0.00,6,,160
2012-4-4,82,66,51,54,46,40,77,52,23,29.93,29.85,29.76,10,10,10,12,5,16,0.00,0,,319
2012-4-5,88,72,57,57,52,43,87,62,22,29.91,29.83,29.78,10,10,9,10,3,,0.00,1,,300
2012-4-6,82,70,59,59,55,51,81,58,38,30.01,29.95,29.91,10,10,10,12,7,18,0.00,0,,101
2012-4-7,81,74,66,64,61,59,87,70,47,30.19,30.08,30.00,10,8,5,10,6,18,0.00,5,,162
2012-4-8,82,72,62,61,59,56,90,68,42,30.24,30.19,30.14,10,10,7,10,4,,0.00,2,,140
2012-4-9,82,71,60,61,57,54,87,64,40,30.19,30.13,30.05,10,10,7,9,3,,0.00,0,,170
2012-4-10,82,72,61,58,56,52,81,59,35,30.12,30.07,30.02,10,9,7,10,4,18,0.00,0,,165
2012-4-11,82,70,59,61,58,54,93,67,37,30.16,30.06,29.96,10,8,3,14,5,20,0.00,2,,171
2012-4-12,81,74,68,67,63,60,87,75,50,30.05,29.98,29.89,10,10,6,13,8,28,0.00,7,Rain,156
2012-4-13,80,73,66,66,64,62,90,78,60,30.01,29.93,29.83,10,8,4,14,9,26,0.00,8,Rain,164
2012-4-14,80,74,71,67,65,64,81,74,62,29.88,29.79,29.70,10,8,6,21,14,33,0.00,8,,163
2012-4-15,78,68,57,67,57,42,90,69,29,29.95,29.79,29.62,10,7,0,28,14,40,0.01,6,Fog-Rain,246
2012-4-16,73,60,50,54,47,30,81,58,31,30.16,30.07,29.96,10,10,10,16,6,24,0.00,1,,36
2012-4-17,82,68,55,56,49,40,90,58,25,30.24,30.18,30.12,10,10,8,10,6,,0.00,0,,49
2012-4-18,82,71,60,59,53,46,93,63,28,30.22,30.12,29.98,10,9,4,12,6,,0.00,3,,158
2012-4-19,84,72,59,57,51,47,72,50,30,30.00,29.87,29.75,10,10,10,16,9,25,0.00,0,,178
2012-4-20,75,69,60,61,55,41,87,66,32,30.03,29.88,29.73,10,10,5,18,11,30,0.01,3,Rain-Thunderstorm,359
2012-4-21,80,64,48,46,41,38,74,46,24,30.09,30.03,29.99,10,10,10,15,8,20,0.00,0,,357
2012-4-22,90,70,51,48,45,41,77,44,20,30.14,30.06,30.01,10,10,10,15,3,,0.00,0,,54
2012-4-23,81,68,55,43,39,36,53,37,25,30.25,30.15,30.05,10,10,10,12,8,22,0.00,0,,60
2012-4-24,87,71,55,57,47,39,67,43,27,30.06,29.98,29.87,10,10,10,16,5,25,0.00,0,,185
2012-4-25,93,78,64,67,61,57,84,65,32,29.93,29.85,29.76,10,10,8,17,11,28,0.00,3,,185
2012-4-26,95,80,66,68,61,54,81,59,26,29.85,29.79,29.75,10,10,8,17,11,25,0.00,0,,183
2012-4-27,89,78,68,65,59,54,81,57,32,29.84,29.78,29.72,10,10,9,16,13,29,0.00,1,,177
2012-4-28,89,77,66,63,61,59,81,62,37,29.88,29.80,29.75,10,9,7,18,14,36,0.00,3,,173
2012-4-29,84,78,71,65,62,57,81,64,40,29.98,29.89,29.80,10,9,7,16,11,30,0.00,5,,155
2012-4-30,84,78,72,67,66,63,84,71,51,30.04,29.96,29.87,10,8,6,15,10,26,0.00,6,,160